Norwegian Crown — C6II4 — position and weather

sailwx.info

Track history (hours):
 
Tides and Currents Weather Stations Pressure Air Temp Water Temp Dewpoint Dewpoint Depression Visibility Wind Speed Wind Dir Waves Ship Positions

Norwegian Crown

Operator: Norwegian Cruise Line

Last reported at 2014-Dec-22 03:06 UTC. Time now 2014-Dec-22 08:32 UTC.
Position N 50°02' W 003°28'.

Type: Passenger vessel. MMSI: 308785000.

Date/timePositionNaut miles runAvg speedWind from/ knotsBaromVisibWave heightAir tempDewpointWater temp
2014-Dec-22 03:06N 50°02' W 003°28'1015.3
2014-Dec-22 02:27N 50°05' W 003°13'6416.1
2014-Dec-21 22:27N 50°24' W 001°37'1213.6
2014-Dec-21 21:33N 50°27' W 001°19'1211.9
2014-Dec-21 20:33N 50°33' W 001°02'1010.3
2014-Dec-21 19:33N 50°43' W 000°59'1313.4
2014-Dec-21 18:33N 50°49' W 001°18'6 6.3
2014-Dec-21 17:33N 50°54' W 001°25'0 0.0
2014-Dec-21 16:33N 50°54' W 001°25'0 0.0
2014-Dec-21 15:33N 50°54' W 001°25'0 0.0
2014-Dec-21 14:33N 50°54' W 001°25'0 0.0
2014-Dec-21 13:33N 50°54' W 001°25'0 0.0
2014-Dec-21 12:33N 50°54' W 001°25'0 0.0
2014-Dec-21 11:27N 50°54' W 001°25'0 0.0
2014-Dec-21 10:33N 50°54' W 001°25'0 0.0
2014-Dec-21 09:33N 50°54' W 001°25'0 0.0
2014-Dec-21 08:33N 50°54' W 001°25'0 0.0
2014-Dec-21 07:27N 50°54' W 001°25'0 0.0
2014-Dec-21 06:34N 50°54' W 001°25'7 6.8
2014-Dec-21 05:33N 50°49' W 001°18'1111.4
2014-Dec-21 04:33N 50°44' W 001°02'9 9.1
2014-Dec-21 03:33N 50°35' W 000°56'1312.6
2014-Dec-21 02:34N 50°24' W 000°46'4711.8
2014-Dec-20 22:33N 49°40' W 000°20'1413.9
2014-Dec-20 21:33N 49°31' W 000°04'7 7.0
2014-Dec-20 20:31N 49°29' E 000°06'0 0.0
2014-Dec-20 19:31N 49°29' E 000°06'0 0.0
2014-Dec-20 18:31N 49°29' E 000°06'0 0.0
2014-Dec-20 17:28N 49°29' E 000°06'0 0.0
2014-Dec-20 16:25N 49°29' E 000°06'0 0.0
2014-Dec-20 15:25N 49°29' E 000°06'0 0.0
2014-Dec-20 14:31N 49°29' E 000°06'0 0.0
2014-Dec-20 13:28N 49°29' E 000°06'0 0.0
2014-Dec-20 12:25N 49°29' E 000°06'0 0.0
2014-Dec-20 11:31N 49°29' E 000°06'0 0.0
2014-Dec-20 10:28N 49°29' E 000°06'0 0.0
2014-Dec-20 09:31N 49°29' E 000°06'0 0.0
2014-Dec-20 08:32N 49°29' E 000°06'2 2.5
2014-Dec-20 07:34N 49°30' E 000°03'1111.0
2014-Dec-20 06:33N 49°33' W 000°14'9 7.8
2014-Dec-20 05:26N 49°39' W 000°22'43 8.8
2014-Dec-20 00:32N 50°20' W 000°44'1111.3
2014-Dec-19 23:34N 50°31' W 000°50'1110.8
2014-Dec-19 22:33N 50°41' W 000°57'1313.0
2014-Dec-19 21:33N 50°46' W 001°15'10 9.8
2014-Dec-19 20:33N 50°54' W 001°25'0 0.2
2014-Dec-19 19:33N 50°54' W 001°25'0 0.0
2014-Dec-19 18:33N 50°54' W 001°25'0 0.0
2014-Dec-19 17:33N 50°54' W 001°25'0 0.0
2014-Dec-19 16:30N 50°54' W 001°25'0 0.0
2014-Dec-19 15:30N 50°54' W 001°25'0 0.0
2014-Dec-19 14:30N 50°54' W 001°25'0 0.0
2014-Dec-19 13:30N 50°54' W 001°25'0 0.0
2014-Dec-19 12:30N 50°54' W 001°25'0 0.0
2014-Dec-19 11:30N 50°54' W 001°25'0 0.0
2014-Dec-19 10:30N 50°54' W 001°25'0 0.0
2014-Dec-19 09:30N 50°54' W 001°25'0 0.0
2014-Dec-19 08:30N 50°54' W 001°25'0 0.0
2014-Dec-19 07:33N 50°54' W 001°25'0 0.0
2014-Dec-19 06:33N 50°54' W 001°25'1 0.7
2014-Dec-19 05:33N 50°53' W 001°24'8 8.4
2014-Dec-19 04:33N 50°47' W 001°17'1413.8
2014-Dec-19 03:33N 50°41' W 000°57'1212.2
2014-Dec-19 02:33N 50°35' W 000°40'1313.4
2014-Dec-19 01:33N 50°33' W 000°19'1414.3
2014-Dec-19 00:33N 50°33' E 000°04'1414.3
2014-Dec-18 23:34N 50°37' E 000°25'1313.2
2014-Dec-18 22:34N 50°43' E 000°43'1313.0
2014-Dec-18 21:33N 50°51' E 001°00'1212.3
2014-Dec-18 20:33N 50°59' E 001°15'1211.9
2014-Dec-18 19:33N 51°06' E 001°30'1312.9
2014-Dec-18 18:34N 51°14' E 001°45'1514.9
2014-Dec-18 17:34N 51°26' E 001°59'1615.8
2014-Dec-18 16:33N 51°38' E 002°16'4614.5
2014-Dec-18 13:24N 52°14' E 003°01'3014.2
2014-Dec-18 11:16N 52°38' E 003°33'1014.9
2014-Dec-18 10:34N 52°46' E 003°44'1615.6
2014-Dec-18 09:33N 52°57' E 004°01'1816.5
2014-Dec-18 08:27N 53°10' E 004°24'1516.7
2014-Dec-18 07:34N 53°23' E 004°35'1515.4
2014-Dec-18 06:34N 53°32' E 004°55'1616.0
2014-Dec-18 05:33N 53°38' E 005°21'1515.5
2014-Dec-18 04:33N 53°43' E 005°45'1715.0
2014-Dec-18 03:24N 53°49' E 006°13'2613.3
2014-Dec-18 01:26N 53°55' E 006°56'1416.2
2014-Dec-18 00:33N 53°59' E 007°19'1616.5
2014-Dec-17 23:34N 54°02' E 007°47'1616.0
2014-Dec-17 22:33N 54°00' E 008°14'1616.2
2014-Dec-17 21:34N 53°56' E 008°40'1212.3
2014-Dec-17 20:33N 53°51' E 008°60'1111.1
2014-Dec-17 19:34N 53°51' E 009°18'1313.0
2014-Dec-17 18:33N 53°41' E 009°31'1211.9
2014-Dec-17 17:33N 53°34' E 009°47'6 6.0
2014-Dec-17 16:31N 53°32' E 009°57'0 0.0
2014-Dec-17 15:28N 53°32' E 009°57'0 0.2
2014-Dec-17 14:34N 53°32' E 009°57'0 0.0
2014-Dec-17 13:34N 53°32' E 009°57'0 0.0
2014-Dec-17 12:33N 53°32' E 009°57'0 0.0
2014-Dec-17 11:33N 53°32' E 009°57'0 0.2
2014-Dec-17 10:34N 53°32' E 009°57'0 0.4
2014-Dec-17 09:34N 53°33' E 009°57'0 0.0
2014-Dec-17 08:34N 53°33' E 009°57'0 0.0
2014-Dec-17 07:34N 53°33' E 009°57'0 0.0
2014-Dec-17 06:34N 53°33' E 009°57'0 0.0
2014-Dec-17 05:30N 53°33' E 009°57'0 0.0
2014-Dec-17 04:33N 53°33' E 009°57'0 0.0
2014-Dec-17 03:33N 53°33' E 009°57'0 0.0
2014-Dec-17 02:33N 53°33' E 009°57'0 0.0
2014-Dec-17 01:33N 53°33' E 009°57'0 0.0
2014-Dec-17 00:33N 53°33' E 009°57'0 0.0
2014-Dec-16 23:33N 53°33' E 009°57'0 0.0
2014-Dec-16 22:33N 53°33' E 009°57'0 0.0
2014-Dec-16 21:33N 53°33' E 009°57'0 0.0
2014-Dec-16 20:33N 53°33' E 009°57'0 0.0
2014-Dec-16 19:33N 53°33' E 009°57'0 0.0
2014-Dec-16 18:33N 53°33' E 009°57'0 0.0
2014-Dec-16 17:33N 53°33' E 009°57'0 0.0
2014-Dec-16 16:33N 53°33' E 009°57'0 0.0
2014-Dec-16 15:27N 53°33' E 009°57'0 0.0
2014-Dec-16 14:33N 53°33' E 009°57'0 0.0
2014-Dec-16 13:33N 53°33' E 009°57'0 0.0
2014-Dec-16 12:33N 53°33' E 009°57'0 0.0
2014-Dec-16 11:24N 53°33' E 009°57'0 0.0
2014-Dec-16 10:33N 53°33' E 009°57'0 0.0
2014-Dec-16 09:27N 53°33' E 009°57'0 0.0
2014-Dec-16 08:33N 53°33' E 009°57'0 0.0
2014-Dec-16 07:33N 53°33' E 009°57'0 0.0
2014-Dec-16 06:33N 53°33' E 009°57'0 0.0
2014-Dec-16 05:20N 53°33' E 009°57'0 0.0
2014-Dec-16 04:33N 53°33' E 009°57'0 0.0
2014-Dec-16 02:07N 53°33' E 009°57'0 0.0
2014-Dec-16 01:17N 53°33' E 009°57'0 0.0
2014-Dec-15 23:33N 53°33' E 009°57'0 0.0
2014-Dec-15 22:33N 53°33' E 009°57'0 0.0
2014-Dec-15 21:33N 53°33' E 009°57'0 0.0
2014-Dec-15 20:33N 53°33' E 009°57'0 0.0
2014-Dec-15 19:33N 53°33' E 009°57'0 0.0
2014-Dec-15 18:33N 53°33' E 009°57'0 0.0
2014-Dec-15 17:33N 53°33' E 009°57'0 0.0
2014-Dec-15 16:30N 53°33' E 009°57'0 0.0
2014-Dec-15 15:33N 53°33' E 009°57'0 0.0
2014-Dec-15 14:33N 53°33' E 009°57'0 0.0
2014-Dec-15 13:33N 53°33' E 009°57'0 0.0
2014-Dec-15 12:33N 53°33' E 009°57'0 0.0
2014-Dec-15 11:27N 53°33' E 009°57'0 0.0
2014-Dec-15 10:33N 53°33' E 009°57'0 0.0
2014-Dec-15 09:30N 53°33' E 009°57'0 0.0
2014-Dec-15 08:33N 53°33' E 009°57'0 0.0
2014-Dec-15 07:33N 53°33' E 009°57'0 0.0
2014-Dec-15 06:33N 53°33' E 009°57'0 0.0
2014-Dec-15 05:33N 53°33' E 009°57'0 0.0
2014-Dec-15 04:33N 53°33' E 009°57'0 0.0
2014-Dec-15 03:33N 53°33' E 009°57'0 0.0
2014-Dec-15 02:33N 53°33' E 009°57'0 0.0
2014-Dec-15 01:33N 53°33' E 009°57'0 0.0
2014-Dec-15 00:33N 53°33' E 009°57'0 0.0
2014-Dec-14 23:33N 53°33' E 009°57'0 0.0
2014-Dec-14 22:33N 53°33' E 009°57'0 0.0
2014-Dec-14 21:24N 53°33' E 009°57'0 0.0
2014-Dec-14 20:33N 53°33' E 009°57'0 0.0
2014-Dec-14 19:33N 53°33' E 009°57'0 0.0
2014-Dec-14 18:33N 53°33' E 009°57'0 0.0
2014-Dec-14 17:33N 53°33' E 009°57'0 0.0
2014-Dec-14 16:33N 53°33' E 009°57'0 0.0
2014-Dec-14 15:33N 53°33' E 009°57'0 0.0
2014-Dec-14 14:33N 53°33' E 009°57'0 0.0
2014-Dec-14 13:33N 53°33' E 009°57'0 0.0
2014-Dec-14 12:33N 53°33' E 009°57'0 0.0
2014-Dec-14 11:33N 53°33' E 009°57'0 0.0
2014-Dec-14 10:27N 53°33' E 009°57'0 0.0
2014-Dec-14 09:33N 53°33' E 009°57'0 0.0
2014-Dec-14 08:33N 53°33' E 009°57'0 0.0
2014-Dec-14 07:30N 53°33' E 009°57'0 0.0
2014-Dec-14 06:33N 53°33' E 009°57'0 0.0
2014-Dec-14 05:33N 53°33' E 009°57'0 0.0
2014-Dec-14 04:33N 53°33' E 009°57'0 0.0
2014-Dec-14 03:33N 53°33' E 009°57'0 0.0
2014-Dec-14 02:33N 53°33' E 009°57'0 0.0
2014-Dec-14 01:33N 53°33' E 009°57'0 0.0
2014-Dec-14 00:33N 53°33' E 009°57'0 0.0
2014-Dec-13 23:33N 53°33' E 009°57'0 0.0
2014-Dec-13 22:33N 53°33' E 009°57'0 0.0
2014-Dec-13 21:33N 53°33' E 009°57'0 0.0
2014-Dec-13 20:33N 53°33' E 009°57'0 0.0
2014-Dec-13 19:30N 53°33' E 009°57'0 0.0
2014-Dec-13 18:33N 53°33' E 009°57'0 0.0
2014-Dec-13 17:33N 53°33' E 009°57'0 0.0
2014-Dec-13 16:33N 53°33' E 009°57'0 0.0
2014-Dec-13 15:33N 53°33' E 009°57'0 0.0
2014-Dec-13 14:33N 53°33' E 009°57'0 0.0
2014-Dec-13 13:33N 53°33' E 009°57'0 0.0
2014-Dec-13 12:33N 53°33' E 009°57'0 0.0
2014-Dec-13 11:33N 53°33' E 009°57'0 0.0
2014-Dec-13 10:33N 53°33' E 009°57'0 0.0
2014-Dec-13 09:33N 53°33' E 009°57'0 0.0
2014-Dec-13 08:33N 53°33' E 009°57'0 0.0
2014-Dec-13 07:33N 53°33' E 009°57'0 0.0
2014-Dec-13 06:33N 53°33' E 009°57'0 0.0
2014-Dec-13 05:33N 53°33' E 009°57'0 0.0
2014-Dec-13 04:33N 53°33' E 009°57'0 0.0
2014-Dec-13 03:33N 53°33' E 009°57'0 0.0
2014-Dec-13 02:33N 53°33' E 009°57'0 0.0
2014-Dec-13 01:33N 53°33' E 009°57'0 0.0
2014-Dec-13 00:33N 53°33' E 009°57'0 0.0
2014-Dec-12 23:33N 53°33' E 009°57'0 0.0
2014-Dec-12 22:33N 53°33' E 009°57'0 0.0
2014-Dec-12 21:27N 53°33' E 009°57'0 0.0
2014-Dec-12 20:27N 53°33' E 009°57'0 0.0
2014-Dec-12 19:33N 53°33' E 009°57'0 0.0
2014-Dec-12 18:33N 53°33' E 009°57'0 0.0
2014-Dec-12 17:33N 53°33' E 009°57'0 0.0
2014-Dec-12 16:33N 53°33' E 009°57'0 0.0
2014-Dec-12 15:33N 53°33' E 009°57'0 0.0
2014-Dec-12 14:33N 53°33' E 009°57'0 0.0
2014-Dec-12 13:33N 53°33' E 009°57'0 0.0
2014-Dec-12 12:33N 53°33' E 009°57'0 0.0
2014-Dec-12 11:33N 53°33' E 009°57'0 0.0
2014-Dec-12 10:33N 53°33' E 009°57'0 0.0
2014-Dec-12 09:33N 53°33' E 009°57'0 0.0
2014-Dec-12 08:33N 53°33' E 009°57'0 0.0
2014-Dec-12 07:33N 53°33' E 009°57'0 0.0
2014-Dec-12 06:27N 53°33' E 009°57'0 0.0
2014-Dec-12 05:27N 53°33' E 009°57'0 0.0
2014-Dec-12 04:33N 53°33' E 009°57'0 0.0
2014-Dec-12 03:33N 53°33' E 009°57'  
Track history (hours):
 
Tides and Currents Weather Stations Pressure Air Temp Water Temp Dewpoint Dewpoint Depression Visibility Wind Speed Wind Dir Waves Ship Positions

Norwegian Crown

Operator: Norwegian Cruise Line

Last reported at 2014-Dec-22 03:06 UTC. Time now 2014-Dec-22 08:32 UTC.
Position N 50°02' W 003°28'.

Type: Passenger vessel. MMSI: 308785000.

Date/timePositionNaut miles runAvg speedWind from/ knotsBaromVisibWave heightAir tempDewpointWater temp
2014-Dec-22 03:06N 50°02' W 003°28'1015.3
2014-Dec-22 02:27N 50°05' W 003°13'6416.1
2014-Dec-21 22:27N 50°24' W 001°37'1213.6
2014-Dec-21 21:33N 50°27' W 001°19'1211.9
2014-Dec-21 20:33N 50°33' W 001°02'1010.3
2014-Dec-21 19:33N 50°43' W 000°59'1313.4
2014-Dec-21 18:33N 50°49' W 001°18'6 6.3
2014-Dec-21 17:33N 50°54' W 001°25'0 0.0
2014-Dec-21 16:33N 50°54' W 001°25'0 0.0
2014-Dec-21 15:33N 50°54' W 001°25'0 0.0
2014-Dec-21 14:33N 50°54' W 001°25'0 0.0
2014-Dec-21 13:33N 50°54' W 001°25'0 0.0
2014-Dec-21 12:33N 50°54' W 001°25'0 0.0
2014-Dec-21 11:27N 50°54' W 001°25'0 0.0
2014-Dec-21 10:33N 50°54' W 001°25'0 0.0
2014-Dec-21 09:33N 50°54' W 001°25'0 0.0
2014-Dec-21 08:33N 50°54' W 001°25'0 0.0
2014-Dec-21 07:27N 50°54' W 001°25'0 0.0
2014-Dec-21 06:34N 50°54' W 001°25'7 6.8
2014-Dec-21 05:33N 50°49' W 001°18'1111.4
2014-Dec-21 04:33N 50°44' W 001°02'9 9.1
2014-Dec-21 03:33N 50°35' W 000°56'1312.6
2014-Dec-21 02:34N 50°24' W 000°46'4711.8
2014-Dec-20 22:33N 49°40' W 000°20'1413.9
2014-Dec-20 21:33N 49°31' W 000°04'7 7.0
2014-Dec-20 20:31N 49°29' E 000°06'0 0.0
2014-Dec-20 19:31N 49°29' E 000°06'0 0.0
2014-Dec-20 18:31N 49°29' E 000°06'0 0.0
2014-Dec-20 17:28N 49°29' E 000°06'0 0.0
2014-Dec-20 16:25N 49°29' E 000°06'0 0.0
2014-Dec-20 15:25N 49°29' E 000°06'0 0.0
2014-Dec-20 14:31N 49°29' E 000°06'0 0.0
2014-Dec-20 13:28N 49°29' E 000°06'0 0.0
2014-Dec-20 12:25N 49°29' E 000°06'0 0.0
2014-Dec-20 11:31N 49°29' E 000°06'0 0.0
2014-Dec-20 10:28N 49°29' E 000°06'0 0.0
2014-Dec-20 09:31N 49°29' E 000°06'0 0.0
2014-Dec-20 08:32N 49°29' E 000°06'2 2.5
2014-Dec-20 07:34N 49°30' E 000°03'1111.0
2014-Dec-20 06:33N 49°33' W 000°14'9 7.8
2014-Dec-20 05:26N 49°39' W 000°22'43 8.8
2014-Dec-20 00:32N 50°20' W 000°44'1111.3
2014-Dec-19 23:34N 50°31' W 000°50'1110.8
2014-Dec-19 22:33N 50°41' W 000°57'1313.0
2014-Dec-19 21:33N 50°46' W 001°15'10 9.8
2014-Dec-19 20:33N 50°54' W 001°25'0 0.2
2014-Dec-19 19:33N 50°54' W 001°25'0 0.0
2014-Dec-19 18:33N 50°54' W 001°25'0 0.0
2014-Dec-19 17:33N 50°54' W 001°25'0 0.0
2014-Dec-19 16:30N 50°54' W 001°25'0 0.0
2014-Dec-19 15:30N 50°54' W 001°25'0 0.0
2014-Dec-19 14:30N 50°54' W 001°25'0 0.0
2014-Dec-19 13:30N 50°54' W 001°25'0 0.0
2014-Dec-19 12:30N 50°54' W 001°25'0 0.0
2014-Dec-19 11:30N 50°54' W 001°25'0 0.0
2014-Dec-19 10:30N 50°54' W 001°25'0 0.0
2014-Dec-19 09:30N 50°54' W 001°25'0 0.0
2014-Dec-19 08:30N 50°54' W 001°25'0 0.0
2014-Dec-19 07:33N 50°54' W 001°25'0 0.0
2014-Dec-19 06:33N 50°54' W 001°25'1 0.7
2014-Dec-19 05:33N 50°53' W 001°24'8 8.4
2014-Dec-19 04:33N 50°47' W 001°17'1413.8
2014-Dec-19 03:33N 50°41' W 000°57'1212.2
2014-Dec-19 02:33N 50°35' W 000°40'1313.4
2014-Dec-19 01:33N 50°33' W 000°19'1414.3
2014-Dec-19 00:33N 50°33' E 000°04'1414.3
2014-Dec-18 23:34N 50°37' E 000°25'1313.2
2014-Dec-18 22:34N 50°43' E 000°43'1313.0
2014-Dec-18 21:33N 50°51' E 001°00'1212.3
2014-Dec-18 20:33N 50°59' E 001°15'1211.9
2014-Dec-18 19:33N 51°06' E 001°30'1312.9
2014-Dec-18 18:34N 51°14' E 001°45'1514.9
2014-Dec-18 17:34N 51°26' E 001°59'1615.8
2014-Dec-18 16:33N 51°38' E 002°16'4614.5
2014-Dec-18 13:24N 52°14' E 003°01'3014.2
2014-Dec-18 11:16N 52°38' E 003°33'1014.9
2014-Dec-18 10:34N 52°46' E 003°44'1615.6
2014-Dec-18 09:33N 52°57' E 004°01'1816.5
2014-Dec-18 08:27N 53°10' E 004°24'1516.7
2014-Dec-18 07:34N 53°23' E 004°35'1515.4
2014-Dec-18 06:34N 53°32' E 004°55'1616.0
2014-Dec-18 05:33N 53°38' E 005°21'1515.5
2014-Dec-18 04:33N 53°43' E 005°45'1715.0
2014-Dec-18 03:24N 53°49' E 006°13'2613.3
2014-Dec-18 01:26N 53°55' E 006°56'1416.2
2014-Dec-18 00:33N 53°59' E 007°19'1616.5
2014-Dec-17 23:34N 54°02' E 007°47'1616.0
2014-Dec-17 22:33N 54°00' E 008°14'1616.2
2014-Dec-17 21:34N 53°56' E 008°40'1212.3
2014-Dec-17 20:33N 53°51' E 008°60'1111.1
2014-Dec-17 19:34N 53°51' E 009°18'1313.0
2014-Dec-17 18:33N 53°41' E 009°31'1211.9
2014-Dec-17 17:33N 53°34' E 009°47'6 6.0
2014-Dec-17 16:31N 53°32' E 009°57'0 0.0
2014-Dec-17 15:28N 53°32' E 009°57'0 0.2
2014-Dec-17 14:34N 53°32' E 009°57'0 0.0
2014-Dec-17 13:34N 53°32' E 009°57'0 0.0
2014-Dec-17 12:33N 53°32' E 009°57'0 0.0
2014-Dec-17 11:33N 53°32' E 009°57'0 0.2
2014-Dec-17 10:34N 53°32' E 009°57'0 0.4
2014-Dec-17 09:34N 53°33' E 009°57'0 0.0
2014-Dec-17 08:34N 53°33' E 009°57'0 0.0
2014-Dec-17 07:34N 53°33' E 009°57'0 0.0
2014-Dec-17 06:34N 53°33' E 009°57'0 0.0
2014-Dec-17 05:30N 53°33' E 009°57'0 0.0
2014-Dec-17 04:33N 53°33' E 009°57'0 0.0
2014-Dec-17 03:33N 53°33' E 009°57'0 0.0
2014-Dec-17 02:33N 53°33' E 009°57'0 0.0
2014-Dec-17 01:33N 53°33' E 009°57'0 0.0
2014-Dec-17 00:33N 53°33' E 009°57'0 0.0
2014-Dec-16 23:33N 53°33' E 009°57'0 0.0
2014-Dec-16 22:33N 53°33' E 009°57'0 0.0
2014-Dec-16 21:33N 53°33' E 009°57'0 0.0
2014-Dec-16 20:33N 53°33' E 009°57'0 0.0
2014-Dec-16 19:33N 53°33' E 009°57'0 0.0
2014-Dec-16 18:33N 53°33' E 009°57'0 0.0
2014-Dec-16 17:33N 53°33' E 009°57'0 0.0
2014-Dec-16 16:33N 53°33' E 009°57'0 0.0
2014-Dec-16 15:27N 53°33' E 009°57'0 0.0
2014-Dec-16 14:33N 53°33' E 009°57'0 0.0
2014-Dec-16 13:33N 53°33' E 009°57'0 0.0
2014-Dec-16 12:33N 53°33' E 009°57'0 0.0
2014-Dec-16 11:24N 53°33' E 009°57'0 0.0
2014-Dec-16 10:33N 53°33' E 009°57'0 0.0
2014-Dec-16 09:27N 53°33' E 009°57'0 0.0
2014-Dec-16 08:33N 53°33' E 009°57'0 0.0
2014-Dec-16 07:33N 53°33' E 009°57'0 0.0
2014-Dec-16 06:33N 53°33' E 009°57'0 0.0
2014-Dec-16 05:20N 53°33' E 009°57'0 0.0
2014-Dec-16 04:33N 53°33' E 009°57'0 0.0
2014-Dec-16 02:07N 53°33' E 009°57'0 0.0
2014-Dec-16 01:17N 53°33' E 009°57'0 0.0
2014-Dec-15 23:33N 53°33' E 009°57'0 0.0
2014-Dec-15 22:33N 53°33' E 009°57'0 0.0
2014-Dec-15 21:33N 53°33' E 009°57'0 0.0
2014-Dec-15 20:33N 53°33' E 009°57'0 0.0
2014-Dec-15 19:33N 53°33' E 009°57'0 0.0
2014-Dec-15 18:33N 53°33' E 009°57'0 0.0
2014-Dec-15 17:33N 53°33' E 009°57'0 0.0
2014-Dec-15 16:30N 53°33' E 009°57'0 0.0
2014-Dec-15 15:33N 53°33' E 009°57'0 0.0
2014-Dec-15 14:33N 53°33' E 009°57'0 0.0
2014-Dec-15 13:33N 53°33' E 009°57'0 0.0
2014-Dec-15 12:33N 53°33' E 009°57'0 0.0
2014-Dec-15 11:27N 53°33' E 009°57'0 0.0
2014-Dec-15 10:33N 53°33' E 009°57'0 0.0
2014-Dec-15 09:30N 53°33' E 009°57'0 0.0
2014-Dec-15 08:33N 53°33' E 009°57'0 0.0
2014-Dec-15 07:33N 53°33' E 009°57'0 0.0
2014-Dec-15 06:33N 53°33' E 009°57'0 0.0
2014-Dec-15 05:33N 53°33' E 009°57'0 0.0
2014-Dec-15 04:33N 53°33' E 009°57'0 0.0
2014-Dec-15 03:33N 53°33' E 009°57'0 0.0
2014-Dec-15 02:33N 53°33' E 009°57'0 0.0
2014-Dec-15 01:33N 53°33' E 009°57'0 0.0
2014-Dec-15 00:33N 53°33' E 009°57'0 0.0
2014-Dec-14 23:33N 53°33' E 009°57'0 0.0
2014-Dec-14 22:33N 53°33' E 009°57'0 0.0
2014-Dec-14 21:24N 53°33' E 009°57'0 0.0
2014-Dec-14 20:33N 53°33' E 009°57'0 0.0
2014-Dec-14 19:33N 53°33' E 009°57'0 0.0
2014-Dec-14 18:33N 53°33' E 009°57'0 0.0
2014-Dec-14 17:33N 53°33' E 009°57'0 0.0
2014-Dec-14 16:33N 53°33' E 009°57'0 0.0
2014-Dec-14 15:33N 53°33' E 009°57'0 0.0
2014-Dec-14 14:33N 53°33' E 009°57'0 0.0
2014-Dec-14 13:33N 53°33' E 009°57'0 0.0
2014-Dec-14 12:33N 53°33' E 009°57'0 0.0
2014-Dec-14 11:33N 53°33' E 009°57'0 0.0
2014-Dec-14 10:27N 53°33' E 009°57'0 0.0
2014-Dec-14 09:33N 53°33' E 009°57'0 0.0
2014-Dec-14 08:33N 53°33' E 009°57'0 0.0
2014-Dec-14 07:30N 53°33' E 009°57'0 0.0
2014-Dec-14 06:33N 53°33' E 009°57'0 0.0
2014-Dec-14 05:33N 53°33' E 009°57'0 0.0
2014-Dec-14 04:33N 53°33' E 009°57'0 0.0
2014-Dec-14 03:33N 53°33' E 009°57'0 0.0
2014-Dec-14 02:33N 53°33' E 009°57'0 0.0
2014-Dec-14 01:33N 53°33' E 009°57'0 0.0
2014-Dec-14 00:33N 53°33' E 009°57'0 0.0
2014-Dec-13 23:33N 53°33' E 009°57'0 0.0
2014-Dec-13 22:33N 53°33' E 009°57'0 0.0
2014-Dec-13 21:33N 53°33' E 009°57'0 0.0
2014-Dec-13 20:33N 53°33' E 009°57'0 0.0
2014-Dec-13 19:30N 53°33' E 009°57'0 0.0
2014-Dec-13 18:33N 53°33' E 009°57'0 0.0
2014-Dec-13 17:33N 53°33' E 009°57'0 0.0
2014-Dec-13 16:33N 53°33' E 009°57'0 0.0
2014-Dec-13 15:33N 53°33' E 009°57'0 0.0
2014-Dec-13 14:33N 53°33' E 009°57'0 0.0
2014-Dec-13 13:33N 53°33' E 009°57'0 0.0
2014-Dec-13 12:33N 53°33' E 009°57'0 0.0
2014-Dec-13 11:33N 53°33' E 009°57'0 0.0
2014-Dec-13 10:33N 53°33' E 009°57'0 0.0
2014-Dec-13 09:33N 53°33' E 009°57'0 0.0
2014-Dec-13 08:33N 53°33' E 009°57'0 0.0
2014-Dec-13 07:33N 53°33' E 009°57'0 0.0
2014-Dec-13 06:33N 53°33' E 009°57'0 0.0
2014-Dec-13 05:33N 53°33' E 009°57'0 0.0
2014-Dec-13 04:33N 53°33' E 009°57'0 0.0
2014-Dec-13 03:33N 53°33' E 009°57'0 0.0
2014-Dec-13 02:33N 53°33' E 009°57'0 0.0
2014-Dec-13 01:33N 53°33' E 009°57'0 0.0
2014-Dec-13 00:33N 53°33' E 009°57'0 0.0
2014-Dec-12 23:33N 53°33' E 009°57'0 0.0
2014-Dec-12 22:33N 53°33' E 009°57'0 0.0
2014-Dec-12 21:27N 53°33' E 009°57'0 0.0
2014-Dec-12 20:27N 53°33' E 009°57'0 0.0
2014-Dec-12 19:33N 53°33' E 009°57'0 0.0
2014-Dec-12 18:33N 53°33' E 009°57'0 0.0
2014-Dec-12 17:33N 53°33' E 009°57'0 0.0
2014-Dec-12 16:33N 53°33' E 009°57'0 0.0
2014-Dec-12 15:33N 53°33' E 009°57'0 0.0
2014-Dec-12 14:33N 53°33' E 009°57'0 0.0
2014-Dec-12 13:33N 53°33' E 009°57'0 0.0
2014-Dec-12 12:33N 53°33' E 009°57'0 0.0
2014-Dec-12 11:33N 53°33' E 009°57'0 0.0
2014-Dec-12 10:33N 53°33' E 009°57'0 0.0
2014-Dec-12 09:33N 53°33' E 009°57'0 0.0
2014-Dec-12 08:33N 53°33' E 009°57'0 0.0
2014-Dec-12 07:33N 53°33' E 009°57'0 0.0
2014-Dec-12 06:27N 53°33' E 009°57'0 0.0
2014-Dec-12 05:27N 53°33' E 009°57'0 0.0
2014-Dec-12 04:33N 53°33' E 009°57'0 0.0
2014-Dec-12 03:33N 53°33' E 009°57'  

Dump ship's entire track history